createdAt,value
2022-12-31T00:01:45.263Z,87.51
2022-12-31T00:04:13.044Z,87.37
2022-12-31T00:06:42.183Z,87.01
2022-12-31T00:09:11.313Z,86.83
2022-12-31T00:11:39.391Z,86.73
2022-12-31T00:14:07.318Z,86.26
2022-12-31T00:16:37.366Z,86.35
2022-12-31T00:19:06.496Z,86.24
2022-12-31T00:21:35.764Z,85.87
2022-12-31T00:24:05.421Z,85.78
2022-12-31T00:26:34.994Z,85.96
2022-12-31T00:29:03.441Z,85.42
2022-12-31T00:31:33.382Z,85.35
2022-12-31T00:34:01.808Z,85.24
2022-12-31T00:36:31.961Z,85.17
2022-12-31T00:39:01.723Z,85.18
2022-12-31T00:41:31.393Z,85.02
2022-12-31T00:43:59.426Z,85.11
2022-12-31T00:46:27.792Z,84.94
2022-12-31T00:48:55.580Z,84.85
2022-12-31T00:51:27.236Z,84.71
2022-12-31T00:53:55.691Z,84.69
2022-12-31T00:56:25.393Z,84.71
2022-12-31T00:58:55.220Z,84.85
2022-12-31T01:01:24.670Z,84.70
2022-12-31T01:03:53.826Z,84.81
2022-12-31T01:06:21.829Z,84.84
2022-12-31T01:08:50.861Z,84.68
2022-12-31T01:11:23.045Z,84.71
2022-12-31T01:13:53.448Z,85.41
2022-12-31T01:16:24.170Z,85.63
2022-12-31T01:18:52.877Z,85.83
2022-12-31T01:21:21.375Z,85.72
2022-12-31T01:23:49.184Z,85.72
2022-12-31T01:26:18.794Z,85.92
2022-12-31T01:28:47.076Z,85.83
2022-12-31T01:31:16.790Z,85.92
2022-12-31T01:33:46.786Z,86.15
2022-12-31T01:36:21.848Z,86.15
2022-12-31T01:38:53.149Z,86.03
2022-12-31T01:41:22.836Z,85.95
2022-12-31T01:43:54.195Z,85.96
2022-12-31T01:46:30.278Z,85.58
2022-12-31T01:49:02.725Z,85.24
2022-12-31T01:51:34.167Z,84.97
2022-12-31T01:54:03.971Z,84.80
2022-12-31T01:56:31.996Z,84.64
2022-12-31T01:59:00.497Z,84.54
2022-12-31T02:01:31.992Z,84.28
2022-12-31T02:04:05.985Z,84.25
2022-12-31T02:06:39.137Z,84.23
2022-12-31T02:09:08.035Z,84.26
2022-12-31T02:11:38.006Z,84.48
2022-12-31T02:14:09.418Z,84.30
2022-12-31T02:16:45.134Z,84.28
2022-12-31T02:19:47.160Z,84.44
2022-12-31T02:22:27.482Z,84.39
2022-12-31T02:25:22.088Z,84.26
2022-12-31T02:28:00.674Z,84.22
2022-12-31T02:30:33.108Z,84.35
2022-12-31T02:33:11.670Z,84.36
2022-12-31T02:35:47.567Z,84.36
2022-12-31T02:38:21.892Z,84.37
2022-12-31T02:40:50.212Z,84.24
2022-12-31T02:43:17.978Z,84.23
2022-12-31T02:45:51.350Z,84.59
2022-12-31T02:48:38.297Z,85.14
2022-12-31T02:51:18.512Z,85.91
2022-12-31T02:54:00.891Z,86.66
2022-12-31T02:56:33.594Z,86.58
2022-12-31T02:59:26.180Z,86.63
2022-12-31T03:02:16.976Z,87.51
2022-12-31T03:04:48.522Z,87.30
2022-12-31T03:07:20.478Z,86.84
2022-12-31T03:09:48.496Z,86.86
2022-12-31T03:12:49.452Z,86.36
2022-12-31T03:15:22.821Z,86.35
2022-12-31T03:17:54.989Z,86.32
2022-12-31T03:20:44.603Z,86.32
2022-12-31T03:23:14.911Z,86.53
2022-12-31T03:25:43.241Z,86.55
2022-12-31T03:28:14.336Z,86.20
2022-12-31T03:30:45.285Z,86.26
2022-12-31T03:33:15.003Z,86.42
2022-12-31T03:35:43.885Z,86.34
2022-12-31T03:38:12.102Z,86.14
2022-12-31T03:40:42.284Z,86.35
2022-12-31T03:43:10.229Z,86.62
2022-12-31T03:45:38.357Z,86.67
2022-12-31T03:48:08.038Z,86.48
2022-12-31T03:50:37.509Z,86.08
2022-12-31T03:53:05.408Z,85.67
2022-12-31T03:55:33.125Z,85.47
2022-12-31T03:58:01.038Z,85.40
2022-12-31T04:00:28.895Z,85.47
2022-12-31T04:02:56.748Z,85.00
2022-12-31T04:05:24.808Z,85.08
2022-12-31T04:07:55.627Z,84.80
2022-12-31T04:10:23.366Z,84.68
2022-12-31T04:12:51.141Z,84.49
2022-12-31T04:15:20.890Z,84.37
2022-12-31T04:17:49.166Z,84.28
2022-12-31T04:20:17.653Z,84.23
2022-12-31T04:22:45.428Z,83.99
2022-12-31T04:25:14.598Z,83.89
2022-12-31T04:27:44.060Z,84.15
2022-12-31T04:30:13.871Z,84.08
2022-12-31T04:32:42.147Z,84.12
2022-12-31T04:35:11.063Z,83.84
2022-12-31T04:37:38.882Z,83.65
2022-12-31T04:40:07.756Z,83.73
2022-12-31T04:42:37.460Z,83.71
2022-12-31T04:45:06.130Z,83.63
2022-12-31T04:47:33.970Z,83.47
2022-12-31T04:50:01.749Z,83.70
2022-12-31T04:52:29.533Z,83.64
2022-12-31T04:54:57.292Z,83.86
2022-12-31T04:57:25.084Z,84.17
2022-12-31T04:59:54.218Z,84.04
2022-12-31T05:02:22.153Z,84.58
2022-12-31T05:04:50.071Z,85.38
2022-12-31T05:07:18.726Z,86.51
2022-12-31T05:09:46.508Z,86.80
2022-12-31T05:12:14.247Z,86.48
2022-12-31T05:14:41.985Z,86.36
2022-12-31T05:17:11.051Z,86.81
2022-12-31T05:19:39.380Z,87.60
2022-12-31T05:22:24.899Z,87.61
2022-12-31T05:24:53.073Z,87.16
2022-12-31T05:27:21.018Z,86.98
2022-12-31T05:29:48.807Z,86.31
2022-12-31T05:32:18.117Z,86.17
2022-12-31T05:34:45.662Z,85.94
2022-12-31T05:37:13.596Z,85.66
2022-12-31T05:39:41.279Z,85.32
2022-12-31T05:42:09.070Z,85.03
2022-12-31T05:44:36.827Z,84.93
2022-12-31T05:47:04.651Z,84.73
2022-12-31T05:49:33.725Z,84.48
2022-12-31T05:52:01.564Z,84.21
2022-12-31T05:54:29.267Z,84.02
2022-12-31T05:56:57.063Z,83.59
2022-12-31T05:59:24.941Z,83.33
2022-12-31T06:01:52.690Z,83.32
2022-12-31T06:04:20.412Z,83.15
2022-12-31T06:06:49.570Z,83.02
2022-12-31T06:09:17.915Z,82.82
2022-12-31T06:11:46.577Z,82.72
2022-12-31T06:14:14.948Z,84.23
2022-12-31T06:16:43.477Z,85.06
2022-12-31T06:19:11.208Z,85.00
2022-12-31T06:21:38.980Z,85.30
2022-12-31T06:24:08.881Z,85.19
2022-12-31T06:26:36.701Z,85.15
2022-12-31T06:29:04.521Z,84.91
2022-12-31T06:31:32.319Z,84.37
2022-12-31T06:34:01.176Z,84.22
2022-12-31T06:36:29.305Z,84.13
2022-12-31T06:38:57.125Z,83.83
2022-12-31T06:41:26.241Z,83.57
2022-12-31T06:43:54.815Z,83.49
2022-12-31T06:46:22.633Z,83.14
2022-12-31T06:48:50.477Z,83.02
2022-12-31T06:51:19.890Z,82.46
2022-12-31T06:53:49.488Z,82.40
2022-12-31T06:56:19.230Z,82.00
2022-12-31T06:58:49.606Z,81.79
2022-12-31T07:01:44.654Z,81.95
2022-12-31T07:04:33.357Z,81.75
2022-12-31T07:07:07.245Z,81.52
2022-12-31T07:09:41.350Z,81.60
2022-12-31T07:12:19.369Z,81.51
2022-12-31T07:14:53.944Z,81.36
2022-12-31T07:17:33.081Z,81.08
2022-12-31T07:20:06.087Z,80.94
2022-12-31T07:22:34.472Z,80.68
2022-12-31T07:25:02.865Z,80.79
2022-12-31T07:28:01.464Z,80.44
2022-12-31T07:30:40.944Z,80.65
2022-12-31T07:33:30.413Z,80.56
2022-12-31T07:36:08.134Z,80.62
2022-12-31T07:38:41.357Z,80.50
2022-12-31T07:41:16.791Z,80.87
2022-12-31T07:44:02.081Z,81.28
2022-12-31T07:46:42.093Z,81.75
2022-12-31T07:49:12.169Z,81.72
2022-12-31T07:51:40.908Z,81.67
2022-12-31T07:54:13.582Z,81.64
2022-12-31T07:56:41.785Z,81.22
2022-12-31T07:59:24.083Z,80.96
2022-12-31T08:02:00.708Z,80.80
2022-12-31T08:04:33.422Z,80.38
2022-12-31T08:07:09.852Z,80.17
2022-12-31T08:09:47.000Z,80.27
2022-12-31T08:12:15.196Z,80.22
2022-12-31T08:14:46.606Z,80.17
2022-12-31T08:17:17.831Z,80.09
2022-12-31T08:19:46.657Z,79.82
2022-12-31T08:22:35.867Z,79.79
2022-12-31T08:25:14.179Z,79.82
2022-12-31T08:27:51.696Z,79.71
2022-12-31T08:30:22.052Z,79.31
2022-12-31T08:32:59.580Z,79.24
2022-12-31T08:35:39.964Z,78.93
2022-12-31T08:38:26.321Z,79.04
2022-12-31T08:41:02.370Z,79.60
2022-12-31T08:43:42.018Z,79.37
2022-12-31T08:46:18.690Z,79.01
2022-12-31T08:48:48.796Z,79.21
2022-12-31T08:51:20.440Z,79.22
2022-12-31T08:53:49.186Z,78.91
2022-12-31T08:56:27.414Z,79.04
2022-12-31T08:59:08.683Z,78.95
2022-12-31T09:01:46.790Z,78.35
2022-12-31T09:04:24.217Z,78.42
2022-12-31T09:06:59.631Z,78.45
2022-12-31T09:09:39.394Z,77.97
2022-12-31T09:12:11.723Z,78.06
2022-12-31T09:14:48.043Z,77.98
2022-12-31T09:17:41.496Z,77.81
2022-12-31T09:20:23.175Z,77.54
2022-12-31T09:22:51.904Z,77.51
2022-12-31T09:25:21.821Z,77.68
2022-12-31T09:28:02.726Z,77.84
2022-12-31T09:30:34.600Z,77.58
2022-12-31T09:33:08.639Z,77.22
2022-12-31T09:35:43.273Z,77.28
2022-12-31T09:38:20.021Z,77.53
2022-12-31T09:41:13.882Z,77.47
2022-12-31T09:44:14.078Z,77.51
2022-12-31T09:47:16.035Z,77.67
2022-12-31T09:50:21.969Z,77.68
2022-12-31T09:53:17.187Z,77.74
2022-12-31T09:55:49.483Z,77.64
2022-12-31T09:58:33.276Z,77.53
2022-12-31T10:01:07.601Z,77.44
2022-12-31T10:03:53.021Z,77.52
2022-12-31T10:06:27.413Z,77.44
2022-12-31T10:09:15.152Z,77.03
2022-12-31T10:12:03.808Z,76.90
2022-12-31T10:14:51.417Z,76.76
2022-12-31T10:17:30.292Z,76.70
2022-12-31T10:20:17.841Z,76.95
2022-12-31T10:23:18.164Z,77.18
2022-12-31T10:26:12.347Z,77.33
2022-12-31T10:28:50.103Z,77.51
2022-12-31T10:31:26.999Z,77.44
2022-12-31T10:34:08.065Z,77.34
2022-12-31T10:36:53.184Z,77.28
2022-12-31T10:39:28.267Z,77.08
2022-12-31T10:42:20.313Z,76.88
2022-12-31T10:45:12.752Z,76.62
2022-12-31T10:48:22.512Z,76.17
2022-12-31T10:51:15.267Z,76.09
2022-12-31T10:54:36.643Z,76.22
2022-12-31T10:57:33.364Z,75.98
2022-12-31T11:00:11.954Z,75.95
2022-12-31T11:03:12.776Z,76.34
2022-12-31T11:06:41.544Z,76.44
2022-12-31T11:09:50.853Z,76.56
2022-12-31T11:12:58.542Z,76.77
2022-12-31T11:15:50.053Z,76.78
2022-12-31T11:18:26.991Z,76.84
2022-12-31T11:21:10.014Z,76.90
2022-12-31T11:23:46.671Z,76.85
2022-12-31T11:26:25.711Z,76.75
2022-12-31T11:29:10.080Z,76.61
2022-12-31T11:31:48.256Z,76.20
2022-12-31T11:34:32.715Z,76.24
2022-12-31T11:37:21.441Z,75.96
2022-12-31T11:39:55.002Z,75.90
2022-12-31T11:42:30.153Z,76.05
2022-12-31T11:45:05.224Z,75.77
2022-12-31T11:48:27.916Z,75.48
2022-12-31T11:50:43.201Z,75.45
2022-12-31T11:53:46.329Z,75.31
2022-12-31T11:56:18.388Z,75.17
2022-12-31T11:58:49.267Z,74.56
2022-12-31T12:01:23.653Z,74.57
2022-12-31T12:03:51.486Z,73.97
2022-12-31T12:06:24.514Z,73.48
2022-12-31T12:09:00.210Z,73.03
2022-12-31T12:11:31.618Z,73.01
2022-12-31T12:13:59.507Z,73.61
2022-12-31T12:16:29.591Z,74.17
2022-12-31T12:19:05.434Z,74.38
2022-12-31T12:21:33.514Z,74.30
2022-12-31T12:24:02.936Z,74.56
2022-12-31T12:26:36.046Z,74.31
2022-12-31T12:29:11.136Z,74.57
2022-12-31T12:31:40.477Z,74.27
2022-12-31T12:34:23.407Z,74.78
2022-12-31T12:36:51.313Z,75.44
2022-12-31T12:39:22.438Z,74.54
2022-12-31T12:42:01.368Z,74.65
2022-12-31T12:44:29.233Z,74.61
2022-12-31T12:46:59.453Z,76.14
2022-12-31T12:49:29.533Z,78.27
2022-12-31T12:52:16.712Z,80.40
2022-12-31T12:55:00.426Z,80.68
2022-12-31T12:57:35.158Z,81.79
2022-12-31T13:00:16.091Z,82.20
2022-12-31T13:03:22.817Z,82.99
2022-12-31T13:06:05.699Z,83.84
2022-12-31T13:08:50.992Z,85.14
2022-12-31T13:11:31.768Z,84.83
2022-12-31T13:14:05.796Z,85.31
2022-12-31T13:16:40.276Z,86.50
2022-12-31T13:19:15.574Z,86.41
2022-12-31T13:21:51.506Z,86.76
2022-12-31T13:24:33.560Z,86.41
2022-12-31T13:27:07.558Z,86.77
2022-12-31T13:29:36.727Z,86.32
2022-12-31T13:32:08.234Z,86.89
2022-12-31T13:34:41.535Z,86.62
2022-12-31T13:37:23.222Z,86.59
2022-12-31T13:40:03.761Z,86.77
2022-12-31T13:42:40.199Z,86.60
2022-12-31T13:45:14.234Z,86.46
2022-12-31T13:47:47.232Z,86.62
2022-12-31T13:50:24.685Z,85.91
2022-12-31T13:52:58.069Z,85.85
2022-12-31T13:55:31.094Z,85.67
2022-12-31T13:58:05.963Z,85.55
2022-12-31T14:00:38.846Z,84.96
2022-12-31T14:03:13.987Z,84.93
2022-12-31T14:05:51.819Z,84.96
2022-12-31T14:08:19.692Z,84.75
2022-12-31T14:10:58.757Z,84.74
2022-12-31T14:13:42.711Z,84.12
2022-12-31T14:16:20.405Z,83.69
2022-12-31T14:18:56.178Z,83.56
2022-12-31T14:21:30.279Z,83.35
2022-12-31T14:24:05.161Z,83.42
2022-12-31T14:26:37.471Z,82.54
2022-12-31T14:29:20.996Z,81.74
2022-12-31T14:32:14.139Z,80.69
2022-12-31T14:34:49.675Z,80.65
2022-12-31T14:37:28.183Z,79.98
2022-12-31T14:40:02.423Z,79.67
2022-12-31T14:42:37.371Z,79.69
2022-12-31T14:45:20.610Z,79.00
2022-12-31T14:47:53.554Z,78.18
2022-12-31T14:50:24.713Z,78.31
2022-12-31T14:52:56.105Z,77.94
2022-12-31T14:55:28.239Z,78.15
2022-12-31T15:00:54.704Z,77.63
2022-12-31T15:03:34.742Z,78.13
2022-12-31T15:06:23.496Z,78.41
2022-12-31T15:09:07.499Z,78.22
2022-12-31T15:11:49.318Z,78.05
2022-12-31T15:14:55.532Z,77.80
2022-12-31T15:17:33.516Z,77.38
2022-12-31T15:20:19.459Z,76.85
2022-12-31T15:22:49.200Z,76.86
2022-12-31T15:25:27.261Z,77.07
2022-12-31T15:27:56.213Z,76.93
2022-12-31T15:30:34.757Z,77.27
2022-12-31T15:33:06.239Z,77.24
2022-12-31T15:35:46.572Z,77.51
2022-12-31T15:38:33.014Z,77.40
2022-12-31T15:41:13.374Z,77.57
2022-12-31T15:43:44.711Z,77.59
2022-12-31T15:46:19.473Z,77.71
2022-12-31T15:48:52.694Z,77.90
2022-12-31T15:51:25.170Z,77.85
2022-12-31T15:53:54.871Z,78.14
2022-12-31T15:56:34.193Z,77.86
2022-12-31T15:59:05.085Z,76.98
2022-12-31T16:01:35.849Z,77.00
2022-12-31T16:04:06.619Z,77.20
2022-12-31T16:06:37.723Z,77.60
2022-12-31T16:09:09.593Z,77.49
2022-12-31T16:11:41.605Z,77.14
2022-12-31T16:14:18.301Z,77.18
2022-12-31T16:16:54.974Z,76.86
2022-12-31T16:19:31.383Z,77.08
2022-12-31T16:22:04.079Z,76.63
2022-12-31T16:24:37.487Z,76.60
2022-12-31T16:27:16.779Z,76.49
2022-12-31T16:29:52.255Z,76.71
2022-12-31T16:32:23.431Z,76.81
2022-12-31T16:34:51.265Z,76.96
2022-12-31T16:37:20.790Z,77.01
2022-12-31T16:40:17.179Z,76.73
2022-12-31T16:42:47.563Z,76.91
2022-12-31T16:45:29.033Z,76.35
2022-12-31T16:47:58.269Z,76.28
2022-12-31T16:50:26.078Z,76.07
2022-12-31T16:53:00.771Z,75.92
2022-12-31T16:55:30.848Z,75.82
2022-12-31T16:58:02.696Z,75.94
2022-12-31T17:00:30.578Z,75.92
2022-12-31T17:03:07.345Z,75.59
2022-12-31T17:05:37.591Z,75.45
2022-12-31T17:08:23.710Z,74.99
2022-12-31T17:10:51.734Z,75.20
2022-12-31T17:13:29.568Z,73.36
2022-12-31T17:15:59.374Z,73.57
2022-12-31T17:18:28.084Z,73.27
2022-12-31T17:20:56.476Z,73.75
2022-12-31T17:23:27.800Z,73.64
2022-12-31T17:26:00.075Z,73.65
2022-12-31T17:28:38.208Z,73.12
2022-12-31T17:31:28.687Z,72.63
2022-12-31T17:34:24.929Z,71.93
2022-12-31T17:36:58.135Z,71.85
2022-12-31T17:39:27.085Z,71.52
2022-12-31T17:41:58.436Z,70.88
2022-12-31T17:44:29.492Z,70.82
2022-12-31T17:46:57.405Z,70.97
2022-12-31T17:49:30.746Z,70.55
2022-12-31T17:51:58.726Z,70.40
2022-12-31T17:54:26.590Z,67.33
2022-12-31T17:56:54.897Z,68.52
2022-12-31T17:59:24.672Z,69.00
2022-12-31T18:01:54.016Z,69.01
2022-12-31T18:04:21.926Z,67.57
2022-12-31T18:06:49.700Z,66.47
2022-12-31T18:09:18.101Z,65.71
2022-12-31T18:11:46.572Z,65.70
2022-12-31T18:14:15.713Z,65.34
2022-12-31T18:16:43.772Z,64.63
2022-12-31T18:19:37.865Z,63.68
2022-12-31T18:22:03.084Z,63.81
2022-12-31T18:24:30.871Z,63.66
2022-12-31T18:26:58.629Z,62.81
2022-12-31T18:29:26.458Z,62.89
2022-12-31T18:31:54.433Z,63.20
2022-12-31T18:34:23.632Z,63.22
2022-12-31T18:36:51.404Z,63.28
2022-12-31T18:39:19.158Z,63.43
2022-12-31T18:41:49.764Z,63.99
2022-12-31T18:44:17.912Z,64.30
2022-12-31T18:46:45.758Z,64.06
2022-12-31T18:49:13.532Z,63.41
2022-12-31T18:51:42.635Z,64.09
2022-12-31T18:54:12.425Z,64.18
2022-12-31T18:56:44.953Z,63.61
2022-12-31T18:59:15.537Z,63.82
2022-12-31T19:01:43.477Z,64.05
2022-12-31T19:04:13.932Z,63.17
2022-12-31T19:06:43.506Z,63.47
2022-12-31T19:09:30.897Z,63.09
2022-12-31T19:12:00.297Z,63.19
2022-12-31T19:14:28.784Z,62.34
2022-12-31T19:19:26.512Z,62.64
2022-12-31T19:21:55.625Z,63.51
2022-12-31T19:24:26.440Z,63.14
2022-12-31T19:26:55.386Z,63.17
2022-12-31T19:29:26.024Z,63.37
2022-12-31T19:31:54.089Z,63.07
2022-12-31T19:34:22.179Z,62.98
2022-12-31T19:36:49.953Z,63.41
2022-12-31T19:39:21.546Z,62.51
2022-12-31T19:41:56.564Z,61.81
2022-12-31T19:44:27.120Z,61.21
2022-12-31T19:46:54.963Z,61.43
2022-12-31T19:49:22.711Z,61.30
2022-12-31T19:51:50.476Z,61.00
2022-12-31T19:54:19.643Z,60.85
2022-12-31T19:56:47.447Z,60.62
2022-12-31T19:59:15.205Z,60.54
2022-12-31T20:01:43.144Z,60.43
2022-12-31T20:04:10.971Z,60.08
2022-12-31T20:06:38.780Z,60.26
2022-12-31T20:09:06.715Z,60.63
2022-12-31T20:11:36.042Z,60.38
2022-12-31T20:14:03.854Z,60.60
2022-12-31T20:16:33.699Z,60.78
2022-12-31T20:19:01.502Z,60.85
2022-12-31T20:21:30.323Z,60.83
2022-12-31T20:23:58.080Z,60.70
2022-12-31T20:26:27.232Z,60.46
2022-12-31T20:28:56.366Z,60.23
2022-12-31T20:31:26.112Z,60.42
2022-12-31T20:33:54.800Z,60.76
2022-12-31T20:36:23.646Z,61.33
2022-12-31T20:38:51.490Z,61.16
2022-12-31T20:41:21.313Z,61.15
2022-12-31T20:43:49.660Z,61.25
2022-12-31T20:46:20.992Z,61.40
2022-12-31T20:48:49.954Z,61.45
2022-12-31T20:51:19.456Z,61.06
2022-12-31T20:53:48.487Z,60.77
2022-12-31T20:56:16.648Z,60.85
2022-12-31T20:58:44.683Z,61.06
2022-12-31T21:01:13.399Z,61.14
2022-12-31T21:06:32.801Z,61.13
2022-12-31T21:09:01.999Z,61.08
2022-12-31T21:11:46.873Z,61.43
2022-12-31T21:14:14.877Z,61.09
2022-12-31T21:16:42.788Z,61.19
2022-12-31T21:19:11.899Z,60.83
2022-12-31T21:21:39.673Z,60.96
2022-12-31T21:24:08.088Z,60.90
2022-12-31T21:26:36.298Z,61.00
2022-12-31T21:29:04.133Z,60.62
2022-12-31T21:31:31.999Z,60.71
2022-12-31T21:33:59.881Z,60.48
2022-12-31T21:36:29.016Z,60.55
2022-12-31T21:38:56.791Z,60.28
2022-12-31T21:41:42.139Z,60.12
2022-12-31T21:44:09.889Z,59.96
2022-12-31T21:46:37.717Z,60.10
2022-12-31T21:49:05.556Z,60.23
2022-12-31T21:51:54.740Z,60.36
2022-12-31T21:54:36.285Z,60.43
2022-12-31T21:57:04.734Z,59.86
2022-12-31T22:00:09.104Z,60.17
2022-12-31T22:02:58.974Z,60.27
2022-12-31T22:05:27.588Z,60.06
2022-12-31T22:07:56.717Z,60.00
2022-12-31T22:10:24.517Z,59.72
2022-12-31T22:12:52.292Z,60.06
2022-12-31T22:15:20.143Z,60.14
2022-12-31T22:17:48.098Z,60.40
2022-12-31T22:20:31.130Z,60.80
2022-12-31T22:23:00.279Z,60.78
2022-12-31T22:25:28.124Z,60.25
2022-12-31T22:28:36.221Z,59.84
2022-12-31T22:30:43.753Z,59.94
2022-12-31T22:33:11.536Z,60.03
2022-12-31T22:35:39.318Z,60.37
2022-12-31T22:38:12.076Z,59.88
2022-12-31T22:40:40.323Z,60.74
2022-12-31T22:43:08.149Z,61.24
2022-12-31T22:45:37.407Z,59.66
2022-12-31T22:48:05.225Z,59.80
2022-12-31T22:50:32.961Z,59.16
2022-12-31T22:53:00.784Z,59.11
2022-12-31T22:55:29.934Z,59.30
2022-12-31T22:57:57.772Z,59.18
2022-12-31T23:00:39.581Z,59.15
2022-12-31T23:03:07.933Z,58.76
2022-12-31T23:05:35.794Z,57.95
2022-12-31T23:08:12.873Z,57.83
2022-12-31T23:11:05.647Z,58.03
2022-12-31T23:13:55.928Z,58.17
2022-12-31T23:16:42.905Z,58.10
2022-12-31T23:19:29.249Z,57.67
2022-12-31T23:22:14.851Z,57.74
2022-12-31T23:24:42.808Z,57.37
2022-12-31T23:27:13.050Z,57.54
2022-12-31T23:29:46.782Z,57.82
2022-12-31T23:32:15.830Z,57.38
2022-12-31T23:34:44.143Z,56.95
2022-12-31T23:37:12.178Z,56.54
2022-12-31T23:39:40.361Z,56.52
2022-12-31T23:42:08.127Z,55.90
2022-12-31T23:44:37.373Z,55.81
2022-12-31T23:47:05.100Z,55.95
2022-12-31T23:49:32.930Z,55.78
2022-12-31T23:52:00.699Z,55.82
2022-12-31T23:54:29.483Z,55.81
2022-12-31T23:56:57.292Z,55.29
2022-12-31T23:59:24.996Z,54.80
